Time;durP1;ratioP1;P1;durP2;ratioP2;P2;SDS_P1;SDS_P2;PMS_P1;PMS_P2;Temp;Humidity;BMP_temperature;BMP_pressure;BME280_temperature;BME280_humidity;BME280_pressure;Samples;Min_cycle;Max_cycle;Signal;HPM_P1;HPM_P2
2023/04/16 00:01:36;;;;;;;0.82;0.50;;;;;;;23.09;36.10;102039.38;5076692;27;98217;-79
2023/04/16 00:04:02;;;;;;;1.55;0.70;;;;;;;23.08;36.25;102033.03;5077417;27;96811;-79
2023/04/16 00:06:30;;;;;;;0.30;0.20;;;;;;;23.08;36.17;102038.50;5076668;27;96639;-79
2023/04/16 00:08:57;;;;;;;0.60;0.22;;;;;;;23.08;36.22;102041.25;5070224;27;96998;-80
2023/04/16 00:11:24;;;;;;;1.17;0.40;;;;;;;23.09;36.08;102047.59;5078923;27;96844;-79
2023/04/16 00:13:51;;;;;;;1.05;0.40;;;;;;;23.08;36.06;102049.47;5064043;27;96555;-80
2023/04/16 00:16:17;;;;;;;0.70;0.43;;;;;;;23.08;36.20;102040.38;5079547;27;96802;-79
2023/04/16 00:18:44;;;;;;;0.47;0.25;;;;;;;23.09;36.54;102047.59;5073708;27;96795;-80
2023/04/16 00:21:11;;;;;;;1.67;0.65;;;;;;;23.08;36.24;102048.63;5074750;27;97003;-79
2023/04/16 00:23:37;;;;;;;0.55;0.50;;;;;;;23.08;36.08;102046.72;5074400;27;100559;-79
2023/04/16 00:26:04;;;;;;;0.68;0.40;;;;;;;23.08;36.38;102046.72;5075751;27;96870;-79
2023/04/16 00:28:31;;;;;;;1.30;0.57;;;;;;;23.08;36.30;102052.22;5073971;27;97368;-80
2023/04/16 00:31:00;;;;;;;0.85;0.50;;;;;;;23.07;36.43;102042.28;5077045;27;97390;-79
2023/04/16 00:33:28;;;;;;;0.98;0.40;;;;;;;23.07;36.13;102047.75;5071904;27;97468;-81
2023/04/16 00:35:55;;;;;;;0.80;0.43;;;;;;;23.09;36.08;102039.38;5058338;27;96837;-79
2023/04/16 00:38:22;;;;;;;0.73;0.32;;;;;;;23.07;36.21;102031.31;5067199;27;98061;-80
2023/04/16 00:40:49;;;;;;;1.67;0.52;;;;;;;23.07;35.97;102033.19;5093129;27;99821;-80
2023/04/16 00:43:25;;;;;;;0.68;0.50;;;;;;;23.09;36.10;102036.63;5077838;27;97417;-80
2023/04/16 00:45:55;;;;;;;0.60;0.30;;;;;;;23.07;36.36;102033.19;5062689;27;96644;-79
2023/04/16 00:48:22;;;;;;;1.30;0.30;;;;;;;23.07;36.20;102035.94;5071349;27;96854;-81
2023/04/16 00:50:49;;;;;;;0.88;0.40;;;;;;;23.07;36.35;102035.94;5065183;27;97420;-79
2023/04/16 00:53:16;;;;;;;0.40;0.30;;;;;;;23.07;35.96;102033.19;5079531;27;96754;-80
2023/04/16 00:55:43;;;;;;;1.13;0.35;;;;;;;23.08;36.11;102045.88;5085063;27;96917;-80
2023/04/16 00:58:10;;;;;;;0.88;0.40;;;;;;;23.06;36.23;102037.81;5075299;27;96781;-81
2023/04/16 01:00:36;;;;;;;0.40;0.20;;;;;;;23.06;36.09;102040.56;5062021;27;96904;-80
2023/04/16 01:03:03;;;;;;;0.70;0.32;;;;;;;23.07;36.30;102038.69;5064942;27;99342;-80
2023/04/16 01:05:30;;;;;;;0.52;0.40;;;;;;;23.06;36.26;102037.81;5053250;27;97048;-79
2023/04/16 01:07:59;;;;;;;0.75;0.30;;;;;;;23.06;36.21;102039.69;5073574;27;96891;-79
2023/04/16 01:10:26;;;;;;;0.50;0.35;;;;;;;23.06;36.27;102042.44;5074164;27;97417;-80
2023/04/16 01:12:52;;;;;;;1.17;0.70;;;;;;;23.06;36.41;102046.03;5077845;27;98395;-80
2023/04/16 01:15:19;;;;;;;0.63;0.30;;;;;;;23.06;36.30;102042.44;5081973;27;96789;-79
2023/04/16 01:17:45;;;;;;;0.73;0.30;;;;;;;23.05;36.00;102036.09;5088698;27;96742;-79
2023/04/16 01:20:12;;;;;;;0.60;0.30;;;;;;;23.06;36.27;102045.16;5073853;27;98583;-80
2023/04/16 01:22:39;;;;;;;1.10;0.40;;;;;;;23.06;36.24;102031.47;5072520;27;97015;-79
2023/04/16 01:25:06;;;;;;;1.10;0.40;;;;;;;23.06;36.05;102034.22;5080632;27;96837;-79
2023/04/16 01:27:32;;;;;;;1.60;0.55;;;;;;;23.05;36.33;102036.09;5075179;27;96929;-81
2023/04/16 01:29:59;;;;;;;0.68;0.30;;;;;;;23.06;36.43;102036.94;5082505;27;99216;-79
2023/04/16 01:32:37;;;;;;;1.25;0.40;;;;;;;23.05;36.13;102035.22;5079469;27;100153;-80
2023/04/16 01:35:04;;;;;;;0.57;0.40;;;;;;;23.05;36.19;102030.63;5049811;27;97145;-79
2023/04/16 01:37:31;;;;;;;1.13;0.40;;;;;;;23.05;36.05;102032.50;5058616;27;97021;-79
2023/04/16 01:39:58;;;;;;;1.15;0.52;;;;;;;23.05;36.22;102032.50;5069915;27;97497;-80
2023/04/16 01:42:24;;;;;;;0.40;0.20;;;;;;;23.05;36.26;102027.88;5073744;27;97474;-79
2023/04/16 01:44:51;;;;;;;0.65;0.40;;;;;;;23.06;36.00;102031.47;5080346;27;96921;-80
2023/04/16 01:47:17;;;;;;;0.82;0.35;;;;;;;23.05;36.29;102033.34;5059601;27;96857;-80
2023/04/16 01:49:47;;;;;;;0.70;0.30;;;;;;;23.05;36.72;102037.97;5062300;27;100309;-80
2023/04/16 01:52:13;;;;;;;0.70;0.30;;;;;;;23.06;36.36;102036.94;5061068;27;100459;-80
2023/04/16 01:54:40;;;;;;;2.17;0.52;;;;;;;23.05;35.90;102036.09;5078610;27;96799;-79
2023/04/16 01:57:07;;;;;;;0.95;0.40;;;;;;;23.06;36.20;102032.34;5055345;27;96993;-80
2023/04/16 01:59:33;;;;;;;0.73;0.32;;;;;;;23.04;36.27;102033.50;5071047;27;100347;-81
2023/04/16 02:02:09;;;;;;;0.75;0.40;;;;;;;23.05;36.11;102040.72;5069932;27;99243;-80
2023/04/16 02:04:45;;;;;;;0.65;0.30;;;;;;;23.04;36.31;102039.84;5068343;27;96984;-80
2023/04/16 02:07:11;;;;;;;0.85;0.40;;;;;;;23.04;36.68;102041.72;5082499;27;96903;-80
2023/04/16 02:09:39;;;;;;;0.57;0.40;;;;;;;23.05;36.09;102046.19;5051193;27;99863;-80
2023/04/16 02:12:08;;;;;;;0.52;0.30;;;;;;;23.04;36.15;102041.72;5072749;27;98332;-79
2023/04/16 02:14:34;;;;;;;1.08;0.50;;;;;;;23.05;36.38;102040.72;5070044;27;96823;-78
2023/04/16 02:17:01;;;;;;;0.80;0.28;;;;;;;23.03;36.53;102043.59;5064842;27;96877;-79
2023/04/16 02:19:49;;;;;;;0.50;0.25;;;;;;;23.03;36.37;102039.97;5072432;27;96776;-80
2023/04/16 02:22:16;;;;;;;0.65;0.40;;;;;;;23.03;36.39;102046.31;5068114;27;97358;-80
2023/04/16 02:24:43;;;;;;;0.70;0.32;;;;;;;23.04;36.48;102042.59;5078161;27;96929;-79
2023/04/16 02:27:10;;;;;;;0.65;0.38;;;;;;;23.04;35.98;102044.47;5076528;27;97267;-79
2023/04/16 02:29:37;;;;;;;0.60;0.22;;;;;;;23.04;35.98;102039.00;5050575;27;99331;-78
2023/04/16 02:32:10;;;;;;;1.42;0.70;;;;;;;23.04;36.21;102044.47;5091191;27;96714;-79
2023/04/16 02:34:41;;;;;;;0.85;0.30;;;;;;;23.04;36.42;102044.47;5065557;27;96751;-80
2023/04/16 02:37:10;;;;;;;0.85;0.60;;;;;;;23.04;36.13;102039.00;5079544;27;97195;-79
2023/04/16 02:39:37;;;;;;;1.10;0.50;;;;;;;23.04;36.74;102041.72;5070998;27;97072;-78
2023/04/16 02:42:03;;;;;;;1.20;0.50;;;;;;;23.04;36.36;102039.00;5076308;27;96995;-79
2023/04/16 02:44:30;;;;;;;1.00;0.43;;;;;;;23.04;36.20;102039.00;5090004;27;96894;-79
2023/04/16 02:46:56;;;;;;;0.95;0.43;;;;;;;23.03;36.28;102043.59;5078831;27;97024;-78
2023/04/16 02:49:23;;;;;;;0.80;0.40;;;;;;;23.04;36.18;102044.47;5072552;27;99356;-79
2023/04/16 02:51:49;;;;;;;0.80;0.40;;;;;;;23.03;36.61;102040.84;5075684;27;98929;-80
2023/04/16 02:54:16;;;;;;;0.90;0.52;;;;;;;23.03;36.28;102042.72;5083475;27;96511;-81
2023/04/16 02:56:42;;;;;;;0.88;0.40;;;;;;;23.03;36.33;102045.47;5072260;27;97242;-80
2023/04/16 02:59:09;;;;;;;0.68;0.30;;;;;;;23.03;36.14;102049.06;5079597;27;99584;-80
2023/04/16 03:01:36;;;;;;;0.60;0.40;;;;;;;23.04;36.31;102047.22;5073376;27;99506;-79
2023/04/16 03:04:02;;;;;;;0.57;0.38;;;;;;;23.03;36.15;102048.22;5065184;27;98004;-80
2023/04/16 03:06:30;;;;;;;0.60;0.40;;;;;;;23.04;36.20;102044.47;5073354;27;97999;-79
2023/04/16 03:08:57;;;;;;;1.10;0.40;;;;;;;23.03;36.20;102045.47;5068357;27;96996;-80
2023/04/16 03:11:23;;;;;;;0.47;0.30;;;;;;;23.03;36.32;102045.47;5074787;27;99150;-80
2023/04/16 03:13:50;;;;;;;1.08;0.35;;;;;;;23.01;36.21;102053.84;5076121;27;96873;-80
2023/04/16 03:16:16;;;;;;;1.33;0.47;;;;;;;23.03;36.64;102049.06;5081198;27;96815;-79
2023/04/16 03:18:43;;;;;;;0.80;0.40;;;;;;;23.03;36.34;102060.03;5084681;27;97765;-79
2023/04/16 03:21:10;;;;;;;0.50;0.40;;;;;;;23.02;35.98;102057.44;5060576;27;99584;-79
2023/04/16 03:23:36;;;;;;;1.42;0.63;;;;;;;23.03;36.43;102059.16;5061036;27;96787;-80
2023/04/16 03:26:03;;;;;;;1.10;0.52;;;;;;;23.03;36.31;102065.50;5075354;27;99012;-79
2023/04/16 03:28:29;;;;;;;1.05;0.55;;;;;;;23.02;36.40;102068.41;5074983;27;97075;-79
2023/04/16 03:30:57;;;;;;;1.20;0.50;;;;;;;23.02;36.51;102062.94;5060733;27;99833;-79
2023/04/16 03:33:23;;;;;;;0.40;0.30;;;;;;;23.03;36.33;102072.88;5065440;27;96550;-79
2023/04/16 03:35:56;;;;;;;0.75;0.40;;;;;;;23.03;36.24;102057.28;5079581;27;96804;-79
2023/04/16 03:38:25;;;;;;;1.13;0.60;;;;;;;23.02;36.19;102066.53;5072661;27;99955;-79
2023/04/16 03:40:54;;;;;;;1.20;0.70;;;;;;;23.02;36.26;102068.41;5078755;27;100320;-79
2023/04/16 03:43:21;;;;;;;0.80;0.50;;;;;;;23.01;36.37;102066.69;5067968;27;96750;-79
2023/04/16 03:45:47;;;;;;;0.90;0.50;;;;;;;23.02;36.53;102068.41;5101451;27;97220;-79
2023/04/16 03:48:16;;;;;;;0.90;0.50;;;;;;;23.02;36.38;102066.53;5048541;27;99317;-79
2023/04/16 03:50:46;;;;;;;0.60;0.40;;;;;;;23.02;36.01;102065.66;5082249;27;97503;-79
2023/04/16 03:53:15;;;;;;;1.25;0.57;;;;;;;23.02;36.44;102071.16;5072595;27;96820;-79
2023/04/16 03:55:42;;;;;;;0.60;0.40;;;;;;;23.02;36.07;102076.63;5073168;27;97212;-79
2023/04/16 03:58:09;;;;;;;0.55;0.40;;;;;;;23.02;36.40;102071.16;5084307;27;97422;-80
2023/04/16 04:00:36;;;;;;;2.17;0.50;;;;;;;23.01;36.28;102073.03;5069866;27;99136;-78
2023/04/16 04:03:09;;;;;;;1.08;0.60;;;;;;;23.01;36.32;102074.91;5062977;27;96883;-80
2023/04/16 04:05:39;;;;;;;1.10;0.65;;;;;;;23.02;36.45;102079.38;5080306;27;97146;-80
2023/04/16 04:08:10;;;;;;;0.75;0.40;;;;;;;23.01;36.21;102075.75;5074266;27;101034;-79
2023/04/16 04:10:37;;;;;;;1.77;0.50;;;;;;;23.02;36.22;102073.88;5076427;27;99016;-81
2023/04/16 04:13:06;;;;;;;1.00;0.50;;;;;;;23.00;36.19;102076.78;5066992;27;96923;-78
2023/04/16 04:15:33;;;;;;;0.80;0.40;;;;;;;23.01;36.20;102069.44;5066156;27;97112;-78
2023/04/16 04:18:00;;;;;;;1.60;0.47;;;;;;;23.01;36.60;102067.53;5080529;27;97712;-79
2023/04/16 04:20:26;;;;;;;1.33;0.60;;;;;;;23.01;36.38;102072.16;5065079;27;99109;-80
2023/04/16 04:22:53;;;;;;;0.68;0.40;;;;;;;23.01;36.32;102077.66;5074622;27;96893;-79
2023/04/16 04:25:23;;;;;;;1.30;0.50;;;;;;;23.01;36.37;102077.66;5058674;27;96822;-80
2023/04/16 04:27:50;;;;;;;1.52;0.60;;;;;;;23.01;36.20;102085.88;5077804;27;97575;-80
2023/04/16 04:30:16;;;;;;;0.80;0.40;;;;;;;23.00;36.26;102082.25;5083963;27;96743;-80
2023/04/16 04:32:43;;;;;;;0.77;0.50;;;;;;;23.01;36.46;102083.13;5080608;27;96673;-80
2023/04/16 04:35:10;;;;;;;1.13;0.70;;;;;;;23.00;36.65;102084.16;5069500;27;96953;-79
2023/04/16 04:37:36;;;;;;;1.10;0.60;;;;;;;23.00;36.21;102085.00;5076750;27;99162;-79
2023/04/16 04:40:11;;;;;;;;;;;;;;;22.96;36.21;102083.59;5058015;27;98934;-79
2023/04/16 04:42:38;;;;;;;0.85;0.50;;;;;;;22.95;36.53;102089.25;5081313;27;97240;-80
2023/04/16 04:45:05;;;;;;;1.38;0.60;;;;;;;22.97;36.29;102089.94;5067810;27;97206;-79
2023/04/16 04:47:33;;;;;;;1.00;0.60;;;;;;;22.97;36.24;102088.06;5073046;27;100364;-79
2023/04/16 04:49:59;;;;;;;1.00;0.60;;;;;;;22.98;36.42;102095.25;5061824;27;99336;-79
2023/04/16 04:52:26;;;;;;;1.10;0.65;;;;;;;22.99;36.40;102098.88;5070418;27;96709;-82
2023/04/16 04:54:53;;;;;;;2.17;0.85;;;;;;;22.98;36.75;102100.75;5079522;27;97598;-79
2023/04/16 04:57:19;;;;;;;1.13;0.70;;;;;;;22.98;36.35;102098.00;5067400;27;99426;-79
2023/04/16 04:59:49;;;;;;;1.30;0.55;;;;;;;22.98;36.30;102099.88;5076855;27;99375;-79
2023/04/16 05:02:16;;;;;;;1.35;0.70;;;;;;;22.99;36.59;102098.88;5076471;27;97420;-80
2023/04/16 05:04:43;;;;;;;1.90;0.90;;;;;;;22.99;36.17;102101.59;5062704;27;97094;-80
2023/04/16 05:07:09;;;;;;;0.95;0.60;;;;;;;22.98;36.40;102105.38;5077523;27;97145;-79
2023/04/16 05:09:36;;;;;;;0.73;0.60;;;;;;;22.99;36.23;102110.69;5080424;27;99150;-80
2023/04/16 05:12:03;;;;;;;1.95;0.60;;;;;;;22.98;36.64;102103.47;5076163;27;96769;-80
2023/04/16 05:14:29;;;;;;;1.42;0.77;;;;;;;22.99;36.57;102109.81;5068434;27;96877;-78
2023/04/16 05:16:56;;;;;;;1.15;0.85;;;;;;;22.99;36.44;102110.69;5079529;27;97666;-80
2023/04/16 05:19:22;;;;;;;1.63;0.70;;;;;;;22.98;36.42;102121.81;5075919;27;97394;-78
2023/04/16 05:21:49;;;;;;;1.75;0.63;;;;;;;22.98;36.43;102119.06;5084063;27;96852;-80
2023/04/16 05:24:15;;;;;;;2.10;1.02;;;;;;;22.98;36.46;102113.59;5082812;27;97926;-79
2023/04/16 05:26:42;;;;;;;1.40;0.60;;;;;;;22.99;36.21;102118.03;5086308;27;97003;-80
2023/04/16 05:29:08;;;;;;;1.88;0.90;;;;;;;22.98;36.61;102125.41;5059137;27;96702;-81
2023/04/16 05:31:35;;;;;;;1.40;0.68;;;;;;;22.99;36.59;102115.31;5071752;27;96732;-79
2023/04/16 05:34:02;;;;;;;1.05;0.68;;;;;;;22.98;36.48;102122.66;5071732;27;96719;-79
2023/04/16 05:36:28;;;;;;;1.27;0.70;;;;;;;22.99;36.15;102120.78;5077590;27;98642;-80
2023/04/16 05:38:55;;;;;;;1.85;0.80;;;;;;;22.98;36.29;102122.66;5071638;27;97589;-78
2023/04/16 05:41:21;;;;;;;1.20;0.75;;;;;;;22.98;36.42;102128.13;5089593;27;96761;-80
2023/04/16 05:43:48;;;;;;;1.00;0.73;;;;;;;22.98;36.66;102127.28;5046061;27;97071;-79
2023/04/16 05:46:14;;;;;;;0.88;0.70;;;;;;;22.98;36.30;102130.88;5083147;27;97352;-79
2023/04/16 05:48:41;;;;;;;1.40;0.93;;;;;;;22.98;36.34;102130.03;5080754;27;96998;-79
2023/04/16 05:51:08;;;;;;;1.30;0.90;;;;;;;22.97;36.47;102126.41;5066494;27;97243;-81
2023/04/16 05:53:34;;;;;;;1.67;0.70;;;;;;;22.97;36.25;102131.91;5072342;27;96801;-79
2023/04/16 05:56:01;;;;;;;2.08;0.82;;;;;;;22.98;36.66;102132.75;5073521;27;96704;-80
2023/04/16 05:58:27;;;;;;;1.77;0.95;;;;;;;22.98;36.61;102132.75;5055254;27;98274;-79
2023/04/16 06:00:54;;;;;;;1.33;0.80;;;;;;;22.98;36.72;102130.03;5072370;27;96784;-79
2023/04/16 06:03:20;;;;;;;1.85;1.00;;;;;;;22.98;36.72;102140.97;5060015;27;96796;-78
2023/04/16 06:05:47;;;;;;;2.10;0.80;;;;;;;22.97;36.28;102133.78;5049557;27;99877;-79
2023/04/16 06:08:14;;;;;;;1.35;0.60;;;;;;;22.96;36.46;102135.66;5067420;27;97233;-78
2023/04/16 06:10:40;;;;;;;1.35;1.00;;;;;;;22.97;36.66;102137.38;5066614;27;96694;-79
2023/04/16 06:13:07;;;;;;;1.75;1.00;;;;;;;22.98;36.55;102139.09;5060235;27;98413;-78
2023/04/16 06:15:34;;;;;;;1.98;1.00;;;;;;;22.97;36.23;102140.13;5073440;27;96931;-79
2023/04/16 06:18:00;;;;;;;1.27;0.82;;;;;;;22.97;36.51;102142.84;5067278;27;97252;-79
2023/04/16 06:20:27;;;;;;;2.03;0.88;;;;;;;22.97;36.31;102151.09;5048910;27;96919;-79
2023/04/16 06:22:54;;;;;;;2.92;1.00;;;;;;;22.97;36.55;102148.34;5083925;27;97400;-79
2023/04/16 06:25:21;;;;;;;1.00;0.77;;;;;;;22.96;36.56;102140.28;5065683;27;98908;-79
2023/04/16 06:27:47;;;;;;;1.92;1.20;;;;;;;22.97;36.67;102150.22;5069140;27;96706;-80
2023/04/16 06:30:15;;;;;;;1.95;1.05;;;;;;;22.96;36.66;102151.25;5070590;27;97085;-79
2023/04/16 06:32:42;;;;;;;1.35;0.93;;;;;;;22.97;36.60;102158.44;5069275;27;96749;-79
2023/04/16 06:35:09;;;;;;;1.48;0.95;;;;;;;22.97;36.24;102161.19;5069994;27;97392;-79
2023/04/16 06:37:35;;;;;;;1.58;1.00;;;;;;;22.96;36.47;102159.47;5078443;27;96595;-79
2023/04/16 06:40:02;;;;;;;2.28;1.00;;;;;;;22.96;36.60;102173.16;5060663;27;96726;-79
2023/04/16 06:42:28;;;;;;;1.52;1.02;;;;;;;22.96;36.54;102171.28;5059336;27;97557;-79
2023/04/16 06:44:55;;;;;;;4.25;1.27;;;;;;;22.96;36.62;102182.22;5067946;27;97434;-79
2023/04/16 06:47:21;;;;;;;1.50;1.00;;;;;;;22.95;36.67;102180.50;5069985;27;100179;-79
2023/04/16 06:49:48;;;;;;;1.55;1.00;;;;;;;22.95;36.79;102177.78;5071423;27;97187;-80
2023/04/16 06:52:15;;;;;;;1.42;1.15;;;;;;;22.94;36.29;102178.78;5071365;27;96903;-79
2023/04/16 06:54:41;;;;;;;3.08;1.08;;;;;;;22.96;36.64;102181.38;5070967;27;97858;-78
2023/04/16 06:57:08;;;;;;;1.67;0.90;;;;;;;22.95;36.60;102185.13;5065349;27;97129;-79
2023/04/16 06:59:34;;;;;;;1.83;1.13;;;;;;;22.96;36.36;102184.13;5062560;27;96592;-80
2023/04/16 07:02:01;;;;;;;2.17;1.10;;;;;;;22.95;36.46;102191.47;5074470;27;96922;-80
2023/04/16 07:04:28;;;;;;;2.50;1.13;;;;;;;22.95;36.75;102188.72;5055730;27;98927;-79
2023/04/16 07:06:54;;;;;;;3.08;1.35;;;;;;;22.95;36.48;102193.34;5072604;27;96966;-79
2023/04/16 07:09:21;;;;;;;2.65;1.00;;;;;;;22.95;36.71;102198.84;5059156;27;96771;-80
2023/04/16 07:11:47;;;;;;;2.08;1.02;;;;;;;22.95;36.83;102196.09;5053299;27;96676;-79
2023/04/16 07:14:14;;;;;;;2.20;1.20;;;;;;;22.94;36.73;102200.72;5060103;27;98304;-78
2023/04/16 07:16:41;;;;;;;2.67;1.15;;;;;;;22.94;36.62;102199.84;5074490;27;97560;-80
2023/04/16 07:19:08;;;;;;;1.65;1.23;;;;;;;22.94;36.53;102197.97;5069581;27;97284;-80
2023/04/16 07:21:35;;;;;;;2.28;1.20;;;;;;;22.93;36.63;102209.94;5056869;27;96896;-80
2023/04/16 07:24:02;;;;;;;1.77;0.93;;;;;;;22.93;36.73;102212.69;5053935;27;98617;-79
2023/04/16 07:26:28;;;;;;;1.70;1.30;;;;;;;22.93;36.75;102212.69;5067442;27;97285;-79
2023/04/16 07:28:54;;;;;;;2.40;1.15;;;;;;;22.93;36.45;102215.44;5069610;27;96900;-81
2023/04/16 07:31:21;;;;;;;1.90;1.25;;;;;;;22.93;36.43;102218.16;5036134;27;96845;-80
2023/04/16 07:33:48;;;;;;;2.22;1.05;;;;;;;22.94;36.41;102216.28;5062177;27;97358;-80
2023/04/16 07:36:14;;;;;;;1.70;1.05;;;;;;;22.93;36.74;102214.56;5073176;27;96763;-80
2023/04/16 07:38:41;;;;;;;2.03;1.50;;;;;;;22.93;36.67;102217.31;5067632;27;96958;-79
2023/04/16 07:41:07;;;;;;;2.08;1.30;;;;;;;22.93;36.54;102225.53;5065537;27;97771;-79
2023/04/16 07:43:34;;;;;;;2.10;1.35;;;;;;;22.93;36.90;102225.53;5054491;27;99222;-80
2023/04/16 07:46:00;;;;;;;2.65;1.60;;;;;;;22.92;36.59;102230.13;5065836;27;96667;-80
2023/04/16 07:48:27;;;;;;;2.13;1.42;;;;;;;22.94;36.83;102224.50;5072985;27;96744;-81
2023/04/16 07:50:54;;;;;;;2.63;1.42;;;;;;;22.93;36.39;102233.75;5073843;27;96811;-80
2023/04/16 07:53:21;;;;;;;2.45;1.25;;;;;;;22.93;36.57;102242.81;5054393;27;96683;-79
2023/04/16 07:55:47;;;;;;;2.08;1.20;;;;;;;22.93;36.75;102239.22;5052601;27;96686;-81
2023/04/16 07:58:14;;;;;;;2.05;1.38;;;;;;;22.93;36.76;102244.69;5088549;27;96634;-79
2023/04/16 08:00:40;;;;;;;2.45;1.38;;;;;;;22.93;36.45;102251.03;5059962;27;96512;-79
2023/04/16 08:03:07;;;;;;;1.75;1.30;;;;;;;22.93;36.74;102240.09;5060295;27;98260;-80
2023/04/16 08:05:34;;;;;;;5.72;1.58;;;;;;;22.93;36.66;102245.56;5073509;27;97917;-80
2023/04/16 08:08:00;;;;;;;3.58;1.27;;;;;;;22.93;36.57;102255.66;5054932;27;96636;-80
2023/04/16 08:10:27;;;;;;;1.90;1.20;;;;;;;22.93;36.83;102258.41;5052673;27;96678;-80
2023/04/16 08:12:53;;;;;;;1.52;1.05;;;;;;;22.93;36.57;102255.66;5053687;27;97147;-80
2023/04/16 08:15:20;;;;;;;2.28;1.40;;;;;;;22.94;36.72;102257.38;5065555;27;97518;-80
2023/04/16 08:17:46;;;;;;;2.50;1.40;;;;;;;22.93;36.87;102259.25;5073784;27;96730;-80
2023/04/16 08:20:13;;;;;;;1.83;1.33;;;;;;;22.94;36.89;102260.13;5073752;27;97415;-80
2023/04/16 08:22:45;;;;;;;3.53;1.50;;;;;;;22.93;36.83;102256.53;5072525;27;96703;-80
2023/04/16 08:25:11;;;;;;;2.72;1.48;;;;;;;22.93;36.41;102263.88;5070695;27;97243;-80
2023/04/16 08:27:38;;;;;;;2.95;1.40;;;;;;;22.93;36.84;102266.63;5062746;27;96915;-80
2023/04/16 08:30:05;;;;;;;1.77;1.35;;;;;;;22.93;36.60;102266.63;5071629;27;96771;-80
2023/04/16 08:32:31;;;;;;;3.08;1.30;;;;;;;22.93;36.76;102272.09;5052021;27;99870;-80
2023/04/16 08:34:59;;;;;;;1.95;1.33;;;;;;;22.94;36.73;102268.34;5070530;27;98819;-81
2023/04/16 08:37:25;;;;;;;2.30;1.30;;;;;;;22.93;36.90;102269.34;5052768;27;96853;-80
2023/04/16 08:39:52;;;;;;;2.83;1.48;;;;;;;22.93;36.49;102272.09;5066997;27;96886;-78
2023/04/16 08:42:51;;;;;;;2.63;1.60;;;;;;;22.94;36.79;102273.81;5066858;27;96753;-80
2023/04/16 08:45:18;;;;;;;2.90;1.52;;;;;;;22.92;36.53;102281.34;5059084;27;96763;-79
2023/04/16 08:47:47;;;;;;;3.70;1.63;;;;;;;22.93;36.81;102285.78;5073840;27;97398;-80
2023/04/16 08:50:15;;;;;;;2.20;1.20;;;;;;;22.92;36.92;102290.41;5072533;27;97345;-80
2023/04/16 08:52:49;;;;;;;3.03;1.75;;;;;;;22.93;36.45;102285.78;5073638;27;96651;-80
2023/04/16 08:55:19;;;;;;;2.08;1.20;;;;;;;22.93;36.84;102288.53;5035548;27;97969;-80
2023/04/16 08:57:49;;;;;;;2.20;1.55;;;;;;;22.92;36.57;102290.41;5049073;27;96757;-80
2023/04/16 09:00:16;;;;;;;2.35;1.40;;;;;;;22.93;36.42;102296.75;5052835;27;97096;-79
2023/04/16 09:02:43;;;;;;;2.47;1.65;;;;;;;22.92;36.74;102297.78;5055948;27;96724;-80
2023/04/16 09:05:15;;;;;;;2.40;1.30;;;;;;;22.93;36.73;102294.00;5073386;27;97146;-80
2023/04/16 09:07:47;;;;;;;2.72;1.30;;;;;;;22.92;36.49;102295.91;5074151;27;96889;-79
2023/04/16 09:10:14;;;;;;;2.10;1.63;;;;;;;22.92;36.58;102292.28;5051939;27;96813;-81
2023/04/16 09:12:41;;;;;;;2.40;1.30;;;;;;;22.92;36.62;102295.91;5065505;27;97164;-80
2023/04/16 09:15:12;;;;;;;1.77;1.35;;;;;;;22.93;36.92;102292.13;5034669;27;100952;-80
2023/04/16 09:17:39;;;;;;;1.75;1.42;;;;;;;22.93;36.88;102300.34;5065756;27;96928;-81
2023/04/16 09:20:08;;;;;;;1.70;1.40;;;;;;;22.93;36.60;102299.50;5067039;27;96955;-79
2023/04/16 09:22:35;;;;;;;2.58;1.60;;;;;;;22.94;36.55;102301.22;5073436;27;98168;-80
2023/04/16 09:25:02;;;;;;;2.47;1.75;;;;;;;22.93;36.67;102300.34;5068816;27;97622;-81
2023/04/16 09:27:29;;;;;;;1.63;1.30;;;;;;;22.93;36.78;102307.72;5042834;27;96761;-80
2023/04/16 09:29:56;;;;;;;1.77;1.38;;;;;;;22.94;36.98;102295.75;5060498;27;97156;-79
2023/04/16 09:32:26;;;;;;;3.08;1.50;;;;;;;22.94;36.75;102307.56;5063451;27;98009;-80
2023/04/16 09:34:56;;;;;;;1.83;1.40;;;;;;;22.95;36.61;102311.16;5063907;27;96936;-79
2023/04/16 09:37:30;;;;;;;1.63;1.40;;;;;;;22.94;36.68;102312.19;5058882;27;97270;-79
2023/04/16 09:40:01;;;;;;;4.00;1.50;;;;;;;22.94;36.63;102312.19;5050938;27;96654;-80
2023/04/16 09:42:31;;;;;;;2.08;1.58;;;;;;;22.94;36.46;102314.91;5042584;27;99033;-80
2023/04/16 09:44:58;;;;;;;3.88;1.77;;;;;;;22.94;36.95;102313.03;5057540;27;97185;-79
2023/04/16 09:47:42;;;;;;;2.50;1.48;;;;;;;22.94;36.92;102321.25;5071801;27;97325;-77
2023/04/16 09:50:14;;;;;;;1.80;1.50;;;;;;;22.94;36.89;102323.13;5071909;27;96985;-78
2023/04/16 09:52:47;;;;;;;2.28;1.50;;;;;;;22.94;36.60;102324.00;5057790;27;97970;-78
2023/04/16 09:55:13;;;;;;;2.33;1.60;;;;;;;22.93;36.86;102326.91;5070740;27;97794;-78
2023/04/16 09:57:40;;;;;;;2.85;1.60;;;;;;;22.94;36.62;102320.41;5056875;27;96747;-79
2023/04/16 10:00:09;;;;;;;2.00;1.70;;;;;;;22.95;36.64;102325.72;5050498;27;96924;-79
2023/04/16 10:02:40;;;;;;;2.50;1.55;;;;;;;22.95;36.67;102322.13;5050268;27;99557;-80
2023/04/16 10:05:07;;;;;;;2.47;1.95;;;;;;;22.94;36.63;102321.25;5063315;27;97486;-79
2023/04/16 10:07:35;;;;;;;2.88;1.40;;;;;;;22.95;36.68;102322.97;5062433;27;96899;-79
2023/04/16 10:10:03;;;;;;;2.15;1.70;;;;;;;22.95;36.70;102322.97;5052333;27;96748;-79
2023/04/16 10:12:31;;;;;;;1.90;1.40;;;;;;;22.96;36.89;102326.59;5066369;27;99073;-79
2023/04/16 10:14:58;;;;;;;1.80;1.30;;;;;;;22.95;36.82;102325.72;5050206;27;96811;-79
2023/04/16 10:17:26;;;;;;;2.13;1.50;;;;;;;22.96;36.42;102321.09;5065688;27;96749;-78
2023/04/16 10:19:53;;;;;;;2.55;1.50;;;;;;;22.96;36.65;102327.44;5063966;27;96791;-78
2023/04/16 10:22:20;;;;;;;2.42;1.45;;;;;;;22.96;37.14;102326.59;5062749;27;97197;-78
2023/04/16 10:24:48;;;;;;;2.13;1.60;;;;;;;22.95;36.84;102320.25;5079590;27;98007;-78
2023/04/16 10:27:16;;;;;;;2.47;1.80;;;;;;;22.97;36.61;102328.31;5060045;27;96673;-79
2023/04/16 10:29:43;;;;;;;2.40;1.73;;;;;;;22.96;36.82;102324.72;5062377;27;96959;-79
2023/04/16 10:32:10;;;;;;;2.42;1.30;;;;;;;22.97;36.72;102320.09;5073858;27;97546;-79
2023/04/16 10:34:37;;;;;;;2.10;1.50;;;;;;;22.96;36.72;102318.38;5083798;27;99051;-79
2023/04/16 10:37:04;;;;;;;2.53;1.60;;;;;;;22.97;36.53;102331.06;5076555;27;96699;-79
2023/04/16 10:39:36;;;;;;;3.08;1.60;;;;;;;22.96;36.82;102329.31;5074084;27;96804;-79
2023/04/16 10:42:10;;;;;;;1.83;1.50;;;;;;;22.97;36.77;102328.31;5074535;27;97632;-79
2023/04/16 10:44:38;;;;;;;2.05;1.70;;;;;;;22.97;36.78;102322.81;5060575;27;96724;-78
2023/04/16 10:47:11;;;;;;;2.08;1.60;;;;;;;22.97;36.82;102326.44;5062283;27;97123;-79
2023/04/16 10:49:38;;;;;;;1.80;1.40;;;;;;;22.98;36.96;102330.03;5072683;27;97363;-78
2023/04/16 10:52:18;;;;;;;2.75;1.88;;;;;;;22.98;36.51;102324.56;5073993;27;97464;-77
2023/04/16 10:54:47;;;;;;;1.77;1.42;;;;;;;22.98;36.87;102324.56;5086121;27;97262;-79
2023/04/16 10:57:16;;;;;;;2.03;1.70;;;;;;;22.98;36.97;102322.69;5070099;27;96925;-78
2023/04/16 10:59:43;;;;;;;3.72;1.80;;;;;;;22.98;36.72;102319.06;5068175;27;96980;-78
2023/04/16 11:02:16;;;;;;;2.15;1.60;;;;;;;22.99;36.75;102318.06;5065395;27;97887;-79
2023/04/16 11:04:47;;;;;;;2.33;1.75;;;;;;;22.99;36.77;102318.06;5072351;27;99061;-78
2023/04/16 11:07:16;;;;;;;2.42;1.70;;;;;;;22.99;36.99;102318.06;5067438;27;96643;-78
2023/04/16 11:09:49;;;;;;;2.13;1.50;;;;;;;22.99;36.90;102320.78;5058797;27;97274;-78
2023/04/16 11:12:22;;;;;;;2.60;1.90;;;;;;;22.99;36.63;102318.91;5073523;27;97770;-78
2023/04/16 11:14:53;;;;;;;2.67;1.80;;;;;;;22.99;36.85;102316.19;5083585;27;97722;-78
2023/04/16 11:17:20;;;;;;;2.72;1.73;;;;;;;22.99;36.66;102318.91;5065766;27;96726;-78
2023/04/16 11:19:47;;;;;;;3.53;2.00;;;;;;;23.00;36.66;102322.53;5069317;27;96771;-78
2023/04/16 11:22:16;;;;;;;2.47;1.60;;;;;;;23.00;36.63;102317.03;5074790;27;96723;-78
2023/04/16 11:24:44;;;;;;;2.55;1.75;;;;;;;23.00;36.75;102317.03;5085128;27;97119;-78
2023/04/16 11:27:14;;;;;;;2.72;1.90;;;;;;;23.01;37.00;102318.75;5073071;27;96766;-78